Mar del Plata, Argentina

6:11 AM ART en Noviembre 24, 2014 (GMT -0300)
Mar Del Plata International | Change Station
CLOSE
Current Station
Aeropuerto
Location: Mar del Plata,
Altura: 69 ft
Estaciones meteorológicas cercanas

Alt 69 ft 37.93 °S, 57.57 °W | Updated 1 hour ago

Partly Cloudy
Parcialmente nublado
61 ° F
Sensación térmica 61 ° F
N
9
Viento Variable Viento desde NE

Hoy
Alta -- | Baja -- ° F
--% Posibilidad de precipitaciones
Ayer
Alta -- | Baja -- ° F
Precip. -- pul
5:24 AM 7:50 PM
Creciente, 4% visible
Presión 29.68 pul
Visibilidad 2.5 Millas
Nubes Nublado 3000 ft
Baja 4500 ft
Punto de rocío 59 ° F
Humedad 94%
Precipitaciones 0.00 pul
Espesor de la nieve No disponible.
UV 0 de una escala de 12
Polen No disponible.
Calidad del aire No disponible.
Flu Activity No disponible.
METAR SAZM 240800Z 05008KT 4000 OVC030 FEW045CB 16/15 Q1005

More Conditions Fewer Conditions

Presión 29.68 pul
Visibilidad 2.5 Millas
Nubes Nublado 3000 ft
Baja 4500 ft
Punto de rocío 59 ° F
Humedad 94%
Precipitaciones 0.00 pul
Espesor de la nieve No disponible.
UV 0 de una escala de 12
Polen No disponible.
Calidad del aire No disponible.
Flu Activity No disponible.
METAR SAZM 240800Z 05008KT 4000 OVC030 FEW045CB 16/15 Q1005

More Conditions Fewer Conditions

10-Day Weather Forecast

Almanac

Astronomía

Nov. 24, 2014 Salida Puesta
Hora real
Crepúsculo civil
Crepúsculo náutico
Crepúsculo astronómico
Luna
Horas de luz
Horas de luz
Tomorrow will be .
, % of the Moon is Illuminated

Extremos de hoy

Máximos del país Bajas del país

Community

WunderPhotos

Upload Photos

1,773,294 ¡fotos cargadas!

WunderBlogs® & News

Nearby

Calidad del aire

  Calidad del aire Índice AQ Contaminante
Not available.

Grosos de nieve

Estación Profundido Altura

Actividad de terremotos

Ciudad Distance Mag. Tiempo y dato
Magnitud mínima muestra es 2,5.

Temperaturas de aguas costeras

Lugar Temperatura

Estaciones meteorológicas cercanas